Time;durP1;ratioP1;P1;durP2;ratioP2;P2;SDS_P1;SDS_P2;PMS_P1;PMS_P2;Temp;Humidity;BMP_temperature;BMP_pressure;BME280_temperature;BME280_humidity;BME280_pressure;Samples;Min_cycle;Max_cycle;Signal;HPM_P1;HPM_P2
2022/10/26 00:04:45;;;;;;;4.88;3.50;;;;;;;14.09;84.36;100157.94;10424116;28;20064;-71
2022/10/26 00:09:46;;;;;;;4.38;3.22;;;;;;;14.08;84.28;100150.88;10427464;28;20053;-73
2022/10/26 00:14:47;;;;;;;5.80;2.83;;;;;;;14.11;84.51;100151.44;10430740;28;20051;-74
2022/10/26 00:19:49;;;;;;;7.88;3.42;;;;;;;14.07;84.30;100155.41;10460249;28;20077;-72
2022/10/26 00:24:50;;;;;;;7.07;2.92;;;;;;;14.12;84.29;100155.78;10451733;28;20056;-73
2022/10/26 00:29:51;;;;;;;5.07;3.40;;;;;;;14.11;84.36;100151.44;10440665;28;20055;-71
2022/10/26 00:34:53;;;;;;;4.72;2.67;;;;;;;14.07;84.00;100154.56;10490340;28;20188;-73
2022/10/26 00:39:54;;;;;;;3.95;3.10;;;;;;;14.09;84.19;100158.75;10500618;28;20061;-74
2022/10/26 00:44:58;;;;;;;7.28;2.85;;;;;;;14.11;83.86;100156.78;10505311;28;20044;-74
2022/10/26 00:50:05;;;;;;;8.68;3.35;;;;;;;14.06;83.85;100148.34;10498103;28;20104;-70
2022/10/26 00:55:07;;;;;;;6.10;2.80;;;;;;;14.10;83.95;100155.09;10443527;28;20063;-72
2022/10/26 01:00:09;;;;;;;7.28;3.03;;;;;;;14.09;84.23;100158.75;10440193;28;20451;-71
2022/10/26 01:05:13;;;;;;;4.80;3.13;;;;;;;14.10;83.88;100152.44;10442999;28;20056;-72
2022/10/26 01:10:14;;;;;;;4.22;2.50;;;;;;;14.09;83.75;100152.56;10447431;28;20178;-71
2022/10/26 01:15:16;;;;;;;3.95;2.97;;;;;;;14.07;83.88;100136.66;10425622;28;20056;-74
2022/10/26 01:20:43;;;;;;;4.50;2.75;;;;;;;14.13;83.64;100144.09;10440630;28;20045;-74
2022/10/26 01:26:04;;;;;;;5.43;2.92;;;;;;;14.11;83.64;100123.81;10460397;28;20055;-72
2022/10/26 01:31:09;;;;;;;6.82;3.13;;;;;;;14.14;83.55;100135.09;10447639;28;20036;-75
2022/10/26 01:36:39;;;;;;;9.20;3.08;;;;;;;14.19;83.43;100136.47;10448198;28;20664;-73
2022/10/26 01:41:47;;;;;;;4.00;2.45;;;;;;;14.12;84.22;100134.38;10447650;28;20063;-70
2022/10/26 01:46:53;;;;;;;6.40;3.15;;;;;;;14.18;83.65;100134.78;10437086;28;20059;-70
2022/10/26 01:51:54;;;;;;;3.60;2.55;;;;;;;14.28;83.03;100128.38;10435862;28;20053;-70
2022/10/26 01:57:02;;;;;;;7.43;2.58;;;;;;;14.23;82.50;100113.75;10434176;28;20052;-70
2022/10/26 02:02:10;;;;;;;4.85;2.47;;;;;;;14.28;82.21;100130.22;10434222;28;20724;-71
2022/10/26 02:07:41;;;;;;;5.15;2.67;;;;;;;14.28;82.06;100124.84;10432096;28;20044;-72
2022/10/26 02:13:12;;;;;;;5.60;2.20;;;;;;;14.20;82.45;100116.72;10431244;28;20040;-70
2022/10/26 02:18:22;;;;;;;2.85;2.22;;;;;;;14.23;82.66;100116.41;10433926;28;20056;-71
2022/10/26 02:23:27;;;;;;;4.40;2.00;;;;;;;14.21;82.59;100113.06;10393449;28;20103;-70
2022/10/26 02:28:35;;;;;;;4.13;2.25;;;;;;;14.25;82.23;100114.47;10387879;28;20527;-71
2022/10/26 02:33:41;;;;;;;3.75;1.88;;;;;;;14.25;82.08;100109.94;10394243;28;20045;-71
2022/10/26 02:38:45;;;;;;;4.75;2.33;;;;;;;14.22;82.13;100110.25;10392870;28;20049;-74
2022/10/26 02:43:56;;;;;;;4.22;2.47;;;;;;;14.18;82.31;100102.66;10392381;28;20057;-72
2022/10/26 02:48:57;;;;;;;3.90;1.92;;;;;;;14.21;82.11;100108.53;10401468;28;20053;-70
2022/10/26 02:54:14;;;;;;;3.15;2.03;;;;;;;14.15;82.44;100088.56;10390520;28;20060;-70
2022/10/26 02:59:19;;;;;;;5.20;2.53;;;;;;;14.15;82.86;100098.44;10382453;28;20056;-71
2022/10/26 03:04:27;;;;;;;3.88;1.75;;;;;;;14.18;83.53;100089.28;10395804;28;20068;-72
2022/10/26 03:09:29;;;;;;;5.57;1.80;;;;;;;14.13;83.55;100079.84;10395742;28;20162;-73
2022/10/26 03:14:30;;;;;;;6.53;2.53;;;;;;;14.17;84.16;100076.88;10392627;28;20049;-71
2022/10/26 03:19:32;;;;;;;4.55;2.60;;;;;;;14.17;84.09;100084.91;10393143;28;20060;-74
2022/10/26 03:24:33;;;;;;;4.90;2.42;;;;;;;14.12;84.28;100088.88;10397770;28;20052;-71
2022/10/26 03:29:34;;;;;;;4.32;2.53;;;;;;;14.14;84.17;100092.25;10424848;28;20046;-71
2022/10/26 03:34:36;;;;;;;5.68;1.67;;;;;;;14.12;84.33;100078.16;10397649;28;20048;-70
2022/10/26 03:39:37;;;;;;;4.00;2.00;;;;;;;14.13;84.44;100089.72;10405458;28;20056;-73
2022/10/26 03:44:38;;;;;;;3.63;2.13;;;;;;;14.17;84.45;100098.28;10398959;28;20053;-71
2022/10/26 03:49:39;;;;;;;3.88;2.10;;;;;;;14.35;84.54;100099.16;10398088;28;20422;-72
2022/10/26 03:54:41;;;;;;;4.15;1.80;;;;;;;14.31;84.19;100097.78;10398301;28;20119;-73
2022/10/26 03:59:42;;;;;;;5.85;2.25;;;;;;;14.40;84.02;100102.22;10424226;28;20040;-73
2022/10/26 04:04:43;;;;;;;9.13;2.53;;;;;;;14.35;84.08;100095.63;10442359;28;20045;-72
2022/10/26 04:09:44;;;;;;;5.07;2.63;;;;;;;14.25;84.36;100088.50;10441906;28;20049;-72
2022/10/26 04:14:46;;;;;;;4.50;2.00;;;;;;;14.17;84.85;100075.03;10469452;28;20139;-72
2022/10/26 04:19:47;;;;;;;4.00;2.30;;;;;;;14.10;85.34;100068.63;10461805;28;20052;-70
2022/10/26 04:24:49;;;;;;;3.60;2.15;;;;;;;14.08;85.23;100079.47;10430065;28;20049;-75
2022/10/26 04:29:50;;;;;;;4.05;2.88;;;;;;;14.03;85.53;100086.25;10434786;28;20498;-70
2022/10/26 04:34:53;;;;;;;3.67;2.58;;;;;;;14.02;85.68;100089.94;10395428;28;20049;-72
2022/10/26 04:39:54;;;;;;;4.45;2.42;;;;;;;14.17;85.44;100092.94;10394317;28;20061;-72
2022/10/26 04:44:55;;;;;;;4.38;2.67;;;;;;;14.19;85.04;100093.66;10393247;28;20103;-72
2022/10/26 04:49:57;;;;;;;4.13;2.35;;;;;;;14.24;85.30;100092.19;10396680;28;20055;-71
2022/10/26 04:54:58;;;;;;;4.22;2.47;;;;;;;14.28;85.06;100084.69;10395103;28;20045;-73
2022/10/26 05:00:00;;;;;;;5.38;2.97;;;;;;;14.13;85.22;100079.84;10396065;28;20045;-72
2022/10/26 05:05:02;;;;;;;3.22;2.60;;;;;;;14.16;85.65;100089.44;10397877;28;20418;-72
2022/10/26 05:10:09;;;;;;;5.50;2.80;;;;;;;14.11;85.33;100087.22;10400211;28;20518;-71
2022/10/26 05:15:13;;;;;;;7.80;2.75;;;;;;;14.01;85.68;100059.66;10413728;28;20053;-71
2022/10/26 05:20:14;;;;;;;5.22;2.60;;;;;;;14.01;86.39;100069.53;10420323;28;20052;-71
2022/10/26 05:25:15;;;;;;;5.90;2.63;;;;;;;14.06;85.60;100073.41;10430674;28;20507;-71
2022/10/26 05:30:17;;;;;;;5.40;2.83;;;;;;;14.11;85.46;100072.97;10423882;28;20052;-71
2022/10/26 05:35:18;;;;;;;3.78;2.58;;;;;;;14.09;85.24;100080.31;10440135;28;20630;-71
2022/10/26 05:40:19;;;;;;;7.45;2.90;;;;;;;14.05;85.43;100071.75;10439532;28;20773;-71
2022/10/26 05:45:21;;;;;;;5.53;2.83;;;;;;;14.05;86.14;100082.47;10441485;28;20043;-71
2022/10/26 05:50:22;;;;;;;5.28;2.38;;;;;;;14.11;86.79;100097.06;10437542;28;20049;-74
2022/10/26 05:55:24;;;;;;;6.22;2.65;;;;;;;14.32;86.59;100094.09;10444807;28;20067;-74
2022/10/26 06:00:27;;;;;;;3.15;2.60;;;;;;;14.47;84.61;100105.97;10437708;28;20389;-73
2022/10/26 06:05:52;;;;;;;5.07;2.90;;;;;;;14.44;83.73;100108.09;10430167;28;20048;-73
2022/10/26 06:10:54;;;;;;;;;;;;;;;14.28;84.35;100111.47;10433098;28;20067;-73
2022/10/26 06:16:10;;;;;;;8.93;2.75;;;;;;;14.23;84.50;100113.75;10414206;28;19925;-71
2022/10/26 06:21:43;;;;;;;4.72;3.13;;;;;;;14.15;84.80;100099.28;10426598;28;20810;-73
2022/10/26 06:26:55;;;;;;;5.35;2.53;;;;;;;14.20;85.13;100117.59;10351032;28;20045;-72
2022/10/26 06:31:57;;;;;;;8.02;3.20;;;;;;;14.31;84.78;100132.59;10402141;28;20071;-73
2022/10/26 06:36:59;;;;;;;6.82;3.30;;;;;;;14.32;84.13;100128.91;10407185;28;20064;-71
2022/10/26 06:42:01;;;;;;;4.93;2.95;;;;;;;14.29;84.26;100134.56;10421201;28;20044;-73
2022/10/26 06:47:17;;;;;;;5.45;3.47;;;;;;;14.23;84.68;100153.91;10419516;28;20527;-73
2022/10/26 06:52:29;;;;;;;6.15;2.72;;;;;;;14.33;84.61;100174.25;10400268;28;20059;-71
2022/10/26 06:57:35;;;;;;;7.20;2.97;;;;;;;14.39;83.82;100177.34;10400743;28;20155;-71
2022/10/26 07:02:37;;;;;;;7.80;3.17;;;;;;;14.27;84.26;100177.53;10396248;28;20038;-69
2022/10/26 07:07:43;;;;;;;9.57;3.92;;;;;;;14.38;84.73;100189.91;10392007;28;20393;-72
2022/10/26 07:12:45;;;;;;;6.97;4.80;;;;;;;14.33;84.33;100192.19;10386862;28;20522;-73
2022/10/26 07:17:48;;;;;;;10.27;9.40;;;;;;;14.25;84.66;100195.59;10383948;28;20052;-72
2022/10/26 07:22:52;;;;;;;3.15;2.85;;;;;;;14.42;84.91;100201.16;10381564;28;20041;-71
2022/10/26 07:27:58;;;;;;;4.63;3.67;;;;;;;14.40;84.48;100192.44;10381924;28;20060;-71
2022/10/26 07:33:07;;;;;;;7.03;4.32;;;;;;;14.38;84.40;100195.25;10387809;28;20056;-71
2022/10/26 07:38:11;;;;;;;9.18;4.03;;;;;;;14.39;84.83;100198.78;10386539;28;20049;-71
2022/10/26 07:43:12;;;;;;;8.30;4.37;;;;;;;14.34;84.81;100215.28;10387315;28;20046;-72
2022/10/26 07:48:13;;;;;;;7.03;3.80;;;;;;;14.47;84.52;100223.81;10398629;28;20162;-73
2022/10/26 07:53:14;;;;;;;5.45;3.13;;;;;;;14.52;84.54;100249.28;10388745;28;20048;-72
2022/10/26 07:58:16;;;;;;;9.63;6.40;;;;;;;14.64;84.11;100248.16;10384314;28;20057;-70
2022/10/26 08:03:17;;;;;;;12.15;5.32;;;;;;;14.69;83.75;100243.16;10383516;28;20057;-72
2022/10/26 08:08:19;;;;;;;7.00;3.47;;;;;;;14.85;83.54;100237.16;10404960;28;20057;-74
2022/10/26 08:13:20;;;;;;;4.90;3.50;;;;;;;14.99;83.30;100241.13;10421022;28;20049;-72
2022/10/26 08:18:21;;;;;;;5.88;3.80;;;;;;;15.12;82.44;100244.28;10390979;28;20130;-71
2022/10/26 08:23:23;;;;;;;8.32;3.65;;;;;;;15.15;81.36;100238.63;10383435;28;20056;-74
2022/10/26 08:28:25;;;;;;;6.22;3.50;;;;;;;15.29;80.37;100242.59;10384664;28;20432;-71
2022/10/26 08:33:26;;;;;;;5.30;3.90;;;;;;;15.51;79.72;100238.56;10382230;28;20049;-70
2022/10/26 08:38:28;;;;;;;9.60;4.22;;;;;;;15.95;78.31;100247.63;10382339;28;20070;-70
2022/10/26 08:43:39;;;;;;;11.80;4.25;;;;;;;16.65;75.17;100247.44;10394358;28;20065;-70
2022/10/26 08:48:46;;;;;;;9.85;4.15;;;;;;;17.08;73.30;100233.94;10387523;28;20051;-70
2022/10/26 08:54:15;;;;;;;10.80;4.40;;;;;;;17.46;72.22;100243.22;10394715;28;20052;-71
2022/10/26 08:59:55;;;;;;;5.93;3.53;;;;;;;17.59;71.18;100253.44;10428793;28;20638;-69
2022/10/26 09:04:58;;;;;;;9.63;5.32;;;;;;;17.59;70.26;100258.84;10393149;28;22758;-69
2022/10/26 09:10:26;;;;;;;5.87;3.23;;;;;;;17.39;71.57;100262.91;10396512;28;20053;-71
2022/10/26 09:15:54;;;;;;;7.53;3.57;;;;;;;17.23;72.00;100272.63;10387943;28;20049;-71
2022/10/26 09:21:17;;;;;;;6.13;3.00;;;;;;;17.12;72.78;100272.94;10386057;28;20052;-70
2022/10/26 09:26:28;;;;;;;5.15;3.10;;;;;;;17.27;72.95;100270.44;10391541;28;20083;-69
2022/10/26 09:31:34;;;;;;;4.78;3.08;;;;;;;17.36;72.72;100287.44;10397299;28;20320;-71
2022/10/26 09:36:42;;;;;;;6.10;3.60;;;;;;;17.19;72.66;100300.88;10398807;28;20114;-70
2022/10/26 09:41:54;;;;;;;6.70;3.00;;;;;;;17.72;71.54;100303.25;10392955;28;20048;-70
2022/10/26 09:47:13;;;;;;;4.20;3.38;;;;;;;17.71;71.20;100297.00;10393741;28;20052;-70
2022/10/26 09:52:15;;;;;;;5.95;3.30;;;;;;;19.63;67.36;100300.44;10392213;28;20045;-70
2022/10/26 09:57:19;;;;;;;6.03;3.60;;;;;;;21.97;56.30;100308.81;10394787;28;20076;-70
2022/10/26 10:02:38;;;;;;;5.57;3.28;;;;;;;21.54;57.41;100307.00;10393714;28;20511;-69
2022/10/26 10:07:40;;;;;;;8.20;2.88;;;;;;;22.54;54.37;100306.91;10395602;28;20128;-70
2022/10/26 10:12:41;;;;;;;4.47;2.72;;;;;;;24.35;49.43;100305.31;10392069;28;20045;-69
2022/10/26 10:17:51;;;;;;;7.55;2.47;;;;;;;23.96;49.40;100304.34;10388462;28;20578;-69
2022/10/26 10:22:55;;;;;;;8.48;2.70;;;;;;;21.58;55.36;100320.16;10391140;28;20056;-70
2022/10/26 10:27:57;;;;;;;4.60;2.47;;;;;;;20.13;60.84;100322.47;10390256;28;20049;-68
2022/10/26 10:33:09;;;;;;;7.50;3.53;;;;;;;18.96;65.75;100331.63;10389046;28;20068;-68
2022/10/26 10:38:17;;;;;;;3.50;2.45;;;;;;;19.23;66.13;100340.22;10416040;28;20837;-68
2022/10/26 10:43:19;;;;;;;5.60;2.70;;;;;;;23.47;53.89;100335.44;10438826;28;20052;-70
2022/10/26 10:48:24;;;;;;;5.10;2.22;;;;;;;29.16;41.10;100335.34;10443615;28;20048;-71
2022/10/26 10:53:43;;;;;;;5.60;2.78;;;;;;;26.73;41.50;100347.75;10440540;28;20045;-71
2022/10/26 10:59:12;;;;;;;3.80;2.05;;;;;;;23.13;51.10;100350.78;10420395;28;20057;-71
2022/10/26 11:04:46;;;;;;;8.60;2.90;;;;;;;24.48;48.76;100336.25;10405830;28;20094;-70
2022/10/26 11:09:50;;;;;;;4.78;2.30;;;;;;;27.18;41.61;100349.31;10434205;28;20060;-73
2022/10/26 11:15:01;;;;;;;5.18;2.53;;;;;;;25.57;45.65;100360.94;10440507;28;20068;-69
2022/10/26 11:20:12;;;;;;;5.75;2.75;;;;;;;29.26;37.94;100350.09;10402848;28;20063;-70
2022/10/26 11:25:23;;;;;;;5.15;2.60;;;;;;;28.53;39.29;100349.66;10402563;28;20075;-70
2022/10/26 11:30:26;;;;;;;6.43;2.55;;;;;;;29.81;37.12;100353.28;10428239;28;20048;-68
2022/10/26 11:35:39;;;;;;;6.65;2.70;;;;;;;30.09;35.52;100357.84;10446844;28;20060;-71
2022/10/26 11:40:57;;;;;;;4.70;2.72;;;;;;;28.23;39.48;100359.94;10422612;28;20383;-71
2022/10/26 11:46:05;;;;;;;5.25;2.42;;;;;;;25.54;44.92;100355.94;10435730;28;20045;-70
2022/10/26 11:51:16;;;;;;;4.22;1.98;;;;;;;23.32;50.89;100361.94;10421670;28;20064;-73
2022/10/26 11:56:30;;;;;;;5.50;2.50;;;;;;;22.14;55.14;100363.53;10433985;28;20053;-72
2022/10/26 12:01:33;;;;;;;8.55;2.60;;;;;;;21.27;58.41;100359.16;10435127;28;20045;-72
2022/10/26 12:06:34;;;;;;;5.03;2.72;;;;;;;21.15;59.64;100365.09;10422097;28;20049;-70
2022/10/26 12:11:52;;;;;;;5.22;2.42;;;;;;;20.86;60.72;100365.97;10422152;28;20711;-69
2022/10/26 12:17:13;;;;;;;3.30;2.28;;;;;;;20.63;61.98;100371.47;10396517;28;20084;-68
2022/10/26 12:22:21;;;;;;;4.78;2.33;;;;;;;20.51;62.90;100370.22;10398760;28;20041;-69
2022/10/26 12:27:39;;;;;;;5.25;2.53;;;;;;;20.19;64.30;100374.94;10396580;28;20049;-70
2022/10/26 12:32:40;;;;;;;3.63;2.38;;;;;;;19.96;65.53;100387.47;10396208;28;20049;-70
2022/10/26 12:37:44;;;;;;;5.55;2.40;;;;;;;19.91;66.29;100380.94;10398461;28;21478;-69
2022/10/26 12:42:45;;;;;;;5.28;2.20;;;;;;;20.00;66.04;100393.38;10396044;28;20041;-68
2022/10/26 12:47:47;;;;;;;3.42;1.90;;;;;;;20.05;65.87;100390.13;10397904;28;20800;-71
2022/10/26 12:52:51;;;;;;;4.90;2.25;;;;;;;20.27;65.87;100385.69;10397141;28;20404;-69
2022/10/26 12:58:16;;;;;;;9.18;2.65;;;;;;;20.23;66.03;100382.50;10393730;28;20065;-69
2022/10/26 13:03:26;;;;;;;4.05;1.98;;;;;;;20.27;66.08;100389.22;10396219;28;20042;-68
2022/10/26 13:08:41;;;;;;;4.28;2.22;;;;;;;20.29;66.45;100397.16;10393695;28;20459;-69
2022/10/26 13:13:43;;;;;;;4.80;2.60;;;;;;;21.45;62.70;100397.50;10394146;28;20056;-70
2022/10/26 13:18:49;;;;;;;3.95;1.98;;;;;;;22.63;57.18;100409.81;10390717;28;20053;-70
2022/10/26 13:23:53;;;;;;;4.82;1.92;;;;;;;23.43;54.93;100407.50;10391299;28;20049;-70
2022/10/26 13:29:00;;;;;;;5.05;1.75;;;;;;;23.11;55.07;100408.00;10389805;28;20068;-71
2022/10/26 13:34:19;;;;;;;4.93;2.28;;;;;;;22.51;57.29;100421.22;10433361;28;20656;-71
2022/10/26 13:39:25;;;;;;;3.67;1.60;;;;;;;23.34;54.70;100416.88;10433886;28;20122;-69
2022/10/26 13:45:08;;;;;;;8.18;2.15;;;;;;;27.37;44.95;100418.44;10439280;28;20045;-70
2022/10/26 13:50:15;;;;;;;5.90;2.00;;;;;;;32.13;36.67;100413.91;10380795;28;20321;-72
2022/10/26 13:55:24;;;;;;;6.75;2.13;;;;;;;33.55;33.47;100420.44;10407461;28;20065;-73
2022/10/26 14:00:25;;;;;;;4.45;1.60;;;;;;;33.59;32.96;100423.50;10392037;28;20056;-70
2022/10/26 14:05:26;;;;;;;2.50;1.40;;;;;;;34.38;30.63;100420.50;10380605;28;20136;-76
2022/10/26 14:10:39;;;;;;;5.55;1.40;;;;;;;32.53;32.47;100423.56;10386702;28;20392;-72
2022/10/26 14:15:44;;;;;;;3.42;2.30;;;;;;;32.81;32.39;100433.38;10380974;28;20533;-73
2022/10/26 14:20:51;;;;;;;4.93;1.30;;;;;;;32.34;32.67;100437.75;10389420;28;20056;-72
2022/10/26 14:25:54;;;;;;;5.50;1.60;;;;;;;31.41;34.39;100448.94;10375179;28;20057;-75
2022/10/26 14:31:30;;;;;;;4.03;1.65;;;;;;;31.88;34.32;100451.94;10378178;28;20057;-74
2022/10/26 14:37:00;;;;;;;2.65;1.55;;;;;;;31.42;35.26;100450.59;10374188;28;20056;-71
2022/10/26 14:42:13;;;;;;;5.03;2.03;;;;;;;28.88;39.07;100450.13;10373332;28;20057;-72
2022/10/26 14:47:35;;;;;;;4.68;1.80;;;;;;;26.51;43.87;100455.69;10374634;28;20049;-71
2022/10/26 14:52:37;;;;;;;4.15;1.90;;;;;;;25.47;46.75;100447.78;10370464;28;20577;-69
2022/10/26 14:57:40;;;;;;;5.45;1.63;;;;;;;24.09;50.65;100460.34;10376952;28;20053;-70
2022/10/26 15:02:53;;;;;;;2.78;1.70;;;;;;;23.11;53.91;100464.19;10383837;28;20048;-70
2022/10/26 15:07:55;;;;;;;3.60;1.88;;;;;;;22.65;55.64;100473.69;10390424;28;20053;-70
2022/10/26 15:12:56;;;;;;;4.82;2.55;;;;;;;22.26;57.89;100480.44;10388095;28;20045;-70
2022/10/26 15:17:58;;;;;;;4.18;2.03;;;;;;;21.94;59.06;100482.63;10382858;28;20597;-72
2022/10/26 15:23:01;;;;;;;3.43;2.00;;;;;;;21.74;60.45;100476.16;10396259;28;20061;-72
2022/10/26 15:28:19;;;;;;;5.40;1.80;;;;;;;21.48;61.29;100489.19;10398416;28;20475;-71
2022/10/26 15:33:20;;;;;;;6.38;2.65;;;;;;;21.31;62.62;100487.69;10401229;28;20064;-69
2022/10/26 15:38:22;;;;;;;5.50;3.15;;;;;;;21.11;63.14;100485.56;10400997;28;20473;-70
2022/10/26 15:43:23;;;;;;;6.70;2.80;;;;;;;20.93;65.49;100488.66;10404438;28;20048;-71
2022/10/26 15:48:28;;;;;;;4.15;2.17;;;;;;;20.79;66.09;100506.56;10402946;28;20606;-72
2022/10/26 15:53:29;;;;;;;7.38;2.70;;;;;;;20.62;66.52;100502.28;10396424;28;20366;-71
2022/10/26 15:58:31;;;;;;;7.55;3.05;;;;;;;20.44;67.58;100508.03;10397089;28;20049;-72
2022/10/26 16:03:32;;;;;;;8.25;3.42;;;;;;;20.29;68.49;100521.47;10385380;28;20060;-73
2022/10/26 16:08:33;;;;;;;7.10;2.70;;;;;;;20.18;69.55;100524.63;10396225;28;20049;-69
2022/10/26 16:13:35;;;;;;;4.10;2.10;;;;;;;19.98;70.89;100541.28;10393961;28;20499;-68
2022/10/26 16:18:36;;;;;;;4.20;3.00;;;;;;;19.78;71.87;100533.63;10396217;28;20136;-68
2022/10/26 16:23:38;;;;;;;6.05;3.28;;;;;;;19.71;71.75;100540.75;10396298;28;20041;-70
2022/10/26 16:28:39;;;;;;;9.30;3.38;;;;;;;19.58;72.57;100549.38;10397898;28;20427;-73
2022/10/26 16:33:41;;;;;;;7.63;3.00;;;;;;;19.40;72.82;100565.81;10398137;28;20056;-69
2022/10/26 16:38:42;;;;;;;6.40;2.45;;;;;;;19.32;73.40;100568.56;10393828;28;20103;-68
2022/10/26 16:43:45;;;;;;;6.82;2.58;;;;;;;19.24;73.15;100565.88;10394459;28;20664;-69
2022/10/26 16:48:48;;;;;;;6.20;2.78;;;;;;;19.12;73.98;100573.47;10392272;28;20049;-70
2022/10/26 16:53:52;;;;;;;7.00;2.63;;;;;;;19.06;74.84;100583.09;10395863;28;20052;-71
2022/10/26 16:58:55;;;;;;;4.65;2.53;;;;;;;18.94;75.46;100579.06;10393093;28;20045;-70
2022/10/26 17:03:56;;;;;;;7.47;3.88;;;;;;;18.88;76.17;100593.25;10393963;28;20060;-69
2022/10/26 17:08:58;;;;;;;7.32;4.03;;;;;;;18.83;76.39;100600.97;10393992;28;20132;-69
2022/10/26 17:13:59;;;;;;;10.02;3.80;;;;;;;18.73;76.87;100604.69;10393800;28;20051;-69
2022/10/26 17:19:01;;;;;;;8.43;5.05;;;;;;;18.67;77.52;100608.03;10395222;28;20053;-70
2022/10/26 17:24:02;;;;;;;7.90;4.47;;;;;;;18.58;77.70;100614.44;10394931;28;20053;-70
2022/10/26 17:29:04;;;;;;;7.82;4.82;;;;;;;18.47;78.13;100622.88;10394617;28;20065;-69
2022/10/26 17:34:05;;;;;;;7.95;4.35;;;;;;;18.35;78.76;100628.56;10394417;28;20049;-70
2022/10/26 17:39:07;;;;;;;6.65;4.97;;;;;;;18.30;79.54;100640.84;10394948;28;20057;-70
2022/10/26 17:44:09;;;;;;;7.70;5.10;;;;;;;18.24;79.74;100654.97;10391819;28;20052;-70
2022/10/26 17:49:10;;;;;;;6.43;4.50;;;;;;;18.20;80.37;100659.84;10392479;28;20191;-72
2022/10/26 17:54:11;;;;;;;12.13;5.85;;;;;;;18.15;81.49;100672.94;10432193;28;20049;-69
2022/10/26 17:59:13;;;;;;;9.93;5.30;;;;;;;18.08;81.80;100677.31;10403734;28;20056;-70
2022/10/26 18:04:14;;;;;;;9.52;8.02;;;;;;;18.04;82.51;100671.41;10388759;28;20057;-72
2022/10/26 18:09:16;;;;;;;10.10;6.38;;;;;;;17.99;82.85;100689.91;10375729;28;20056;-74
2022/10/26 18:14:17;;;;;;;7.50;5.45;;;;;;;17.91;83.98;100688.03;10378338;28;20049;-72
2022/10/26 18:19:18;;;;;;;13.68;6.80;;;;;;;17.88;83.56;100698.22;10381594;28;20061;-71
2022/10/26 18:24:20;;;;;;;11.43;4.68;;;;;;;17.78;83.93;100698.34;10387410;28;20045;-73
2022/10/26 18:29:21;;;;;;;9.25;5.15;;;;;;;17.73;84.38;100714.13;10390922;28;20088;-74
2022/10/26 18:34:22;;;;;;;7.85;4.72;;;;;;;17.69;84.94;100726.22;10382295;28;20056;-74
2022/10/26 18:39:24;;;;;;;7.95;4.88;;;;;;;17.61;85.45;100738.63;10388903;28;20574;-73
2022/10/26 18:44:25;;;;;;;10.25;4.60;;;;;;;17.59;85.65;100737.09;10401269;28;20045;-70
2022/10/26 18:49:26;;;;;;;8.77;5.13;;;;;;;17.54;85.55;100739.44;10393623;28;20050;-71
2022/10/26 18:54:28;;;;;;;6.85;4.35;;;;;;;17.47;85.99;100739.19;10381128;28;20044;-72
2022/10/26 18:59:31;;;;;;;;;;;;;;;17.44;86.33;100755.66;10397070;28;20519;-70
2022/10/26 19:04:33;;;;;;;10.55;6.10;;;;;;;17.43;85.93;100752.13;10409055;28;19931;-71
2022/10/26 19:09:34;;;;;;;8.60;4.82;;;;;;;17.39;86.31;100757.97;10418387;28;20819;-74
2022/10/26 19:14:36;;;;;;;8.27;5.72;;;;;;;17.37;86.23;100760.81;10424288;28;20056;-72
2022/10/26 19:19:37;;;;;;;6.18;4.43;;;;;;;17.32;86.39;100757.72;10421186;28;20057;-72
2022/10/26 19:24:38;;;;;;;7.80;4.10;;;;;;;17.27;86.30;100754.69;10420569;28;20055;-72
2022/10/26 19:29:40;;;;;;;5.70;3.80;;;;;;;17.16;87.06;100766.53;10423205;28;20048;-71
2022/10/26 19:34:41;;;;;;;8.70;4.65;;;;;;;17.11;87.42;100771.50;10405036;28;20036;-72
2022/10/26 19:39:42;;;;;;;20.83;12.05;;;;;;;17.00;88.09;100769.91;10400751;28;20688;-74
2022/10/26 19:44:44;;;;;;;17.25;12.52;;;;;;;17.03;88.47;100779.50;10408055;28;20070;-72
2022/10/26 19:49:45;;;;;;;18.25;11.35;;;;;;;17.02;88.26;100783.19;10422271;28;20135;-73
2022/10/26 19:54:46;;;;;;;11.52;8.73;;;;;;;17.04;88.54;100786.56;10400407;28;20057;-72
2022/10/26 19:59:47;;;;;;;11.02;7.53;;;;;;;16.91;88.90;100784.25;10377614;28;20057;-72
2022/10/26 20:04:49;;;;;;;11.07;6.97;;;;;;;16.92;89.54;100800.25;10378335;28;20113;-72
2022/10/26 20:09:50;;;;;;;8.05;5.97;;;;;;;16.92;89.36;100816.38;10383230;28;20580;-74
2022/10/26 20:14:51;;;;;;;8.88;5.93;;;;;;;16.89;89.90;100816.69;10390345;28;21061;-72
2022/10/26 20:19:54;;;;;;;8.18;5.70;;;;;;;16.91;89.82;100825.44;10437926;28;20048;-70
2022/10/26 20:24:55;;;;;;;7.40;4.43;;;;;;;16.88;89.14;100828.41;10442138;28;20053;-70
2022/10/26 20:29:57;;;;;;;7.45;4.45;;;;;;;16.85;89.90;100831.38;10435130;28;20067;-73
2022/10/26 20:34:58;;;;;;;5.88;4.05;;;;;;;16.88;89.56;100830.28;10432141;28;20056;-74
2022/10/26 20:40:00;;;;;;;5.88;3.97;;;;;;;16.87;90.18;100824.03;10437290;28;20606;-73
2022/10/26 20:45:07;;;;;;;11.95;5.68;;;;;;;16.87;89.75;100837.47;10436018;28;20045;-75
2022/10/26 20:50:10;;;;;;;5.10;3.90;;;;;;;16.89;89.16;100840.00;10435945;28;20060;-71
2022/10/26 20:55:38;;;;;;;5.38;4.15;;;;;;;16.86;89.01;100835.78;10439519;28;20057;-72
2022/10/26 21:00:45;;;;;;;7.47;4.22;;;;;;;16.77;88.93;100832.13;10450804;28;20041;-73
2022/10/26 21:05:47;;;;;;;7.93;5.38;;;;;;;16.69;89.04;100841.94;10442417;28;20045;-71
2022/10/26 21:10:50;;;;;;;8.48;5.38;;;;;;;16.65;88.82;100845.91;10416315;28;20047;-70
2022/10/26 21:15:51;;;;;;;12.93;8.93;;;;;;;16.59;89.24;100856.28;10416494;28;20057;-74
2022/10/26 21:20:57;;;;;;;11.32;8.15;;;;;;;16.55;89.32;100860.25;10412990;28;20065;-70
2022/10/26 21:25:59;;;;;;;8.30;5.90;;;;;;;16.43;89.75;100858.75;10389873;28;20049;-72
2022/10/26 21:31:05;;;;;;;10.35;6.50;;;;;;;16.39;89.57;100862.69;10395421;28;20048;-74
2022/10/26 21:36:12;;;;;;;7.20;6.00;;;;;;;16.30;89.89;100863.59;10393569;28;20044;-71
2022/10/26 21:41:16;;;;;;;8.43;6.68;;;;;;;16.08;91.22;100868.31;10410924;28;20057;-71
2022/10/26 21:46:18;;;;;;;9.38;7.20;;;;;;;16.03;91.37;100870.56;10391080;28;20657;-72
2022/10/26 21:51:20;;;;;;;8.95;6.13;;;;;;;16.07;91.29;100869.31;10391533;28;20072;-70
2022/10/26 21:56:21;;;;;;;8.95;6.20;;;;;;;16.06;90.42;100871.16;10390985;28;20049;-71
2022/10/26 22:01:22;;;;;;;7.97;6.20;;;;;;;16.06;90.32;100872.97;10395284;28;20518;-72
2022/10/26 22:06:24;;;;;;;7.07;6.30;;;;;;;15.99;90.02;100864.66;10394732;28;20049;-72
2022/10/26 22:11:25;;;;;;;6.95;5.50;;;;;;;15.89;90.02;100867.34;10390460;28;20983;-74
2022/10/26 22:16:29;;;;;;;9.85;6.88;;;;;;;15.63;91.28;100883.16;10393102;28;20060;-71
2022/10/26 22:21:34;;;;;;;10.02;6.13;;;;;;;15.48;92.05;100877.34;10393429;28;20041;-73
2022/10/26 22:26:36;;;;;;;7.47;5.90;;;;;;;15.58;92.41;100892.59;10386922;28;20049;-74
2022/10/26 22:31:39;;;;;;;10.00;6.55;;;;;;;15.58;90.96;100879.19;10394859;28;20042;-72
2022/10/26 22:36:41;;;;;;;8.40;7.47;;;;;;;15.38;92.32;100879.19;10391411;28;20712;-71
2022/10/26 22:41:42;;;;;;;11.85;6.78;;;;;;;15.42;91.34;100885.97;10392283;28;20048;-71
2022/10/26 22:46:43;;;;;;;9.20;6.50;;;;;;;15.44;90.86;100883.16;10392471;28;20053;-74
2022/10/26 22:51:44;;;;;;;8.10;6.28;;;;;;;15.35;90.82;100882.97;10389758;28;20076;-73
2022/10/26 22:56:46;;;;;;;10.23;7.88;;;;;;;15.18;92.16;100889.88;10388035;28;20053;-74
2022/10/26 23:01:47;;;;;;;11.68;6.90;;;;;;;15.18;91.92;100889.88;10392590;28;20877;-72
2022/10/26 23:06:48;;;;;;;6.78;5.78;;;;;;;15.08;92.12;100891.69;10392261;28;20134;-73
2022/10/26 23:11:50;;;;;;;10.93;6.15;;;;;;;14.93;92.63;100893.91;10389972;28;20053;-71
2022/10/26 23:16:51;;;;;;;10.35;7.57;;;;;;;14.92;93.42;100899.41;10388935;28;20050;-75
2022/10/26 23:21:52;;;;;;;8.23;6.85;;;;;;;14.96;94.01;100907.03;10396345;28;20057;-70
2022/10/26 23:26:53;;;;;;;8.80;6.70;;;;;;;15.00;92.94;100913.00;10388712;28;20131;-72